Time;durP1;ratioP1;P1;durP2;ratioP2;P2;SDS_P1;SDS_P2;PMS_P1;PMS_P2;Temp;Humidity;BMP_temperature;BMP_pressure;BME280_temperature;BME280_humidity;BME280_pressure;Samples;Min_cycle;Max_cycle;Signal;HPM_P1;HPM_P2
2023/01/26 00:00:08;;;;;;;16.33;9.25;;;;;;;;;;5027438;28;20076;-74
2023/01/26 00:02:33;;;;;;;16.65;8.65;;;;;;;;;;4674132;28;10000462;-75
2023/01/26 00:04:59;;;;;;;19.15;10.32;;;;;;;;;;5026895;28;20452;-75
2023/01/26 00:07:25;;;;;;;16.50;9.10;;;;;;;;;;5026730;28;20044;-75
2023/01/26 00:09:51;;;;;;;20.05;10.98;;;;;;;;;;5022129;28;20072;-75
2023/01/26 00:12:17;;;;;;;20.10;10.25;;;;;;;;;;5023225;28;20048;-75
2023/01/26 00:14:49;;;;;;;19.00;10.15;;;;;;;;;;5028366;28;20512;-74
2023/01/26 00:17:24;;;;;;;19.47;10.63;;;;;;;;;;5034876;28;20125;-74
2023/01/26 00:19:50;;;;;;;17.67;9.77;;;;;;;;;;5027568;28;20532;-74
2023/01/26 00:22:16;;;;;;;17.02;10.02;;;;;;;;;;5027631;28;20038;-74
2023/01/26 00:24:42;;;;;;;18.27;9.45;;;;;;;;;;5025391;28;20405;-74
2023/01/26 00:27:08;;;;;;;15.63;8.60;;;;;;;;;;5022759;28;20037;-74
2023/01/26 00:29:34;;;;;;;12.88;7.65;;;;;;;;;;5018198;28;20115;-74
2023/01/26 00:32:00;;;;;;;11.13;6.72;;;;;;;;;;5011693;28;20025;-74
2023/01/26 00:34:26;;;;;;;9.48;5.80;;;;;;;;;;5012561;28;20109;-74
2023/01/26 00:36:52;;;;;;;8.60;5.28;;;;;;;;;;5029417;28;20390;-74
2023/01/26 00:39:18;;;;;;;8.38;5.15;;;;;;;;;;5029756;28;20026;-74
2023/01/26 00:44:28;;;;;;;9.07;5.55;;;;;;;;;;5010654;28;20124;-75
2023/01/26 00:46:54;;;;;;;7.63;5.15;;;;;;;;;;5023156;28;20069;-75
2023/01/26 00:49:20;;;;;;;8.30;4.80;;;;;;;;;;5028503;28;20049;-74
2023/01/26 00:51:46;;;;;;;8.25;5.18;;;;;;;;;;5024891;28;20482;-74
2023/01/26 00:54:12;;;;;;;8.75;5.38;;;;;;;;;;5029390;28;20021;-75
2023/01/26 00:56:38;;;;;;;9.68;6.32;;;;;;;;;;5022997;28;20049;-74
2023/01/26 00:59:05;;;;;;;10.23;6.43;;;;;;;;;;5013577;28;20497;-75
2023/01/26 01:01:31;;;;;;;13.63;7.68;;;;;;;;;;5016571;28;20037;-74
2023/01/26 01:03:57;;;;;;;16.50;8.68;;;;;;;;;;5028566;28;20401;-74
2023/01/26 01:06:23;;;;;;;16.85;9.05;;;;;;;;;;5018737;28;20126;-74
2023/01/26 01:08:49;;;;;;;17.55;9.63;;;;;;;;;;5009806;28;20538;-74
2023/01/26 01:11:15;;;;;;;18.50;9.82;;;;;;;;;;5024770;28;20033;-74
2023/01/26 01:13:41;;;;;;;22.40;11.15;;;;;;;;;;5021660;28;20104;-74
2023/01/26 01:16:08;;;;;;;22.77;11.20;;;;;;;;;;5014641;28;20465;-75
2023/01/26 01:18:35;;;;;;;22.60;11.98;;;;;;;;;;5018665;28;20103;-74
2023/01/26 01:21:04;;;;;;;23.50;11.85;;;;;;;;;;5023486;28;20056;-75
2023/01/26 01:23:30;;;;;;;27.90;13.55;;;;;;;;;;5017097;28;20026;-75
2023/01/26 01:25:57;;;;;;;30.67;15.18;;;;;;;;;;5022279;28;20095;-74
2023/01/26 01:28:23;;;;;;;30.98;15.30;;;;;;;;;;5015577;28;20439;-76
2023/01/26 01:30:49;;;;;;;31.48;16.05;;;;;;;;;;5026076;28;20102;-74
2023/01/26 01:33:15;;;;;;;33.35;16.77;;;;;;;;;;5018996;28;20030;-75
2023/01/26 01:35:41;;;;;;;34.88;17.02;;;;;;;;;;5023157;28;20030;-74
2023/01/26 01:38:07;;;;;;;36.95;18.25;;;;;;;;;;5027463;28;20037;-74
2023/01/26 01:40:33;;;;;;;33.97;18.08;;;;;;;;;;5022342;28;20108;-74
2023/01/26 01:42:59;;;;;;;34.50;17.60;;;;;;;;;;5018565;28;20049;-74
2023/01/26 01:45:25;;;;;;;37.78;18.48;;;;;;;;;;5026979;28;20064;-74
2023/01/26 01:47:53;;;;;;;36.05;18.38;;;;;;;;;;5015420;28;20426;-74
2023/01/26 01:50:19;;;;;;;35.05;17.70;;;;;;;;;;5011204;28;20030;-74
2023/01/26 01:52:45;;;;;;;36.10;18.33;;;;;;;;;;5019823;28;20030;-74
2023/01/26 01:55:12;;;;;;;34.72;17.65;;;;;;;;;;5026249;28;20029;-74
2023/01/26 01:57:53;;;;;;;33.45;17.58;;;;;;;;;;5014306;28;20026;-74
2023/01/26 02:00:20;;;;;;;35.10;17.70;;;;;;;;;;5013123;28;20600;-74
2023/01/26 02:05:39;;;;;;;34.85;17.42;;;;;;;;;;5010568;28;20060;-74
2023/01/26 02:08:08;;;;;;;36.13;16.50;;;;;;;;;;5016236;28;20052;-74
2023/01/26 02:10:34;;;;;;;38.47;17.70;;;;;;;;;;5008493;28;20056;-74
2023/01/26 02:13:01;;;;;;;34.67;16.80;;;;;;;;;;5006366;28;20036;-74
2023/01/26 02:15:27;;;;;;;33.60;16.17;;;;;;;;;;5013505;28;20428;-74
2023/01/26 02:17:53;;;;;;;35.58;17.23;;;;;;;;;;5025481;28;20512;-74
2023/01/26 02:20:22;;;;;;;32.58;16.77;;;;;;;;;;5028219;28;20052;-75
2023/01/26 02:23:06;;;;;;;31.13;15.95;;;;;;;;;;5021161;28;20034;-74
2023/01/26 02:25:35;;;;;;;33.75;15.88;;;;;;;;;;5025656;28;20109;-74
2023/01/26 02:28:01;;;;;;;32.60;16.60;;;;;;;;;;5029154;28;20390;-75
2023/01/26 02:30:28;;;;;;;34.05;16.48;;;;;;;;;;5023525;28;20659;-74
2023/01/26 02:32:54;;;;;;;33.92;17.35;;;;;;;;;;5029485;28;20029;-74
2023/01/26 02:35:20;;;;;;;33.30;16.40;;;;;;;;;;5020346;28;20478;-75
2023/01/26 02:37:46;;;;;;;30.83;15.82;;;;;;;;;;5030875;28;20068;-74
2023/01/26 02:40:20;;;;;;;30.15;15.60;;;;;;;;;;5024244;28;20038;-74
2023/01/26 02:42:46;;;;;;;32.30;16.08;;;;;;;;;;5011810;28;20061;-74
2023/01/26 02:45:14;;;;;;;31.70;16.10;;;;;;;;;;5018042;28;20057;-74
2023/01/26 02:47:40;;;;;;;31.65;16.48;;;;;;;;;;5028653;28;20109;-75
2023/01/26 02:50:07;;;;;;;33.03;16.60;;;;;;;;;;5015736;28;20052;-74
2023/01/26 02:52:33;;;;;;;33.85;17.35;;;;;;;;;;5021699;28;20040;-73
2023/01/26 02:57:44;;;;;;;34.53;17.35;;;;;;;;;;5023675;28;20596;-74
2023/01/26 03:00:12;;;;;;;31.65;16.88;;;;;;;;;;5013223;28;20025;-74
2023/01/26 03:02:39;;;;;;;35.17;16.95;;;;;;;;;;5028005;28;20588;-74
2023/01/26 03:05:05;;;;;;;34.92;17.40;;;;;;;;;;5017817;28;20033;-74
2023/01/26 03:07:31;;;;;;;34.17;17.80;;;;;;;;;;5026615;28;20033;-74
2023/01/26 03:10:00;;;;;;;32.47;16.83;;;;;;;;;;5031436;28;20036;-74
2023/01/26 03:12:26;;;;;;;30.67;15.45;;;;;;;;;;5026541;28;20022;-74
2023/01/26 03:15:41;;;;;;;33.45;17.00;;;;;;;;;;5017490;28;20038;-75
2023/01/26 03:17:41;;;;;;;33.00;17.05;;;;;;;;;;5024016;28;20112;-74
2023/01/26 03:28:21;;;;;;;32.78;16.88;;;;;;;;;;5029075;28;20099;-74
2023/01/26 03:30:52;;;;;;;36.15;16.73;;;;;;;;;;5012059;28;20041;-74
2023/01/26 03:33:18;;;;;;;37.67;17.35;;;;;;;;;;5021553;28;20482;-74
2023/01/26 03:35:45;;;;;;;33.60;16.42;;;;;;;;;;5026766;28;20539;-74
2023/01/26 03:38:11;;;;;;;33.30;16.33;;;;;;;;;;5027092;28;20026;-74
2023/01/26 03:57:06;;;;;;;36.08;16.63;;;;;;;;;;5017224;28;20052;-74
2023/01/26 03:59:38;;;;;;;40.05;18.05;;;;;;;;;;5027275;28;20655;-74
2023/01/26 04:10:23;;;;;;;42.80;18.98;;;;;;;;;;5026063;28;20048;-75
2023/01/26 04:23:50;;;;;;;43.38;19.10;;;;;;;;;;5018296;28;20045;-73
2023/01/26 04:26:16;;;;;;;47.58;20.02;;;;;;;;;;5026498;28;20036;-74
2023/01/26 04:28:42;;;;;;;39.17;16.92;;;;;;;;;;5024621;28;20117;-73
2023/01/26 04:31:08;;;;;;;40.97;18.20;;;;;;;;;;5020396;28;20033;-74
2023/01/26 04:33:34;;;;;;;44.08;19.30;;;;;;;;;;5021157;28;20163;-74
2023/01/26 04:36:04;;;;;;;42.72;19.25;;;;;;;;;;5028821;28;20112;-74
2023/01/26 04:38:30;;;;;;;48.45;19.83;;;;;;;;;;5025285;28;20032;-74
2023/01/26 04:40:56;;;;;;;42.70;17.98;;;;;;;;;;5012291;28;20034;-74
2023/01/26 04:43:22;;;;;;;41.00;17.77;;;;;;;;;;5024759;28;20030;-74
2023/01/26 04:46:01;;;;;;;52.00;21.35;;;;;;;;;;5018924;28;20033;-74
2023/01/26 04:48:28;;;;;;;52.15;21.73;;;;;;;;;;5027118;28;20049;-74
2023/01/26 04:50:55;;;;;;;52.90;22.02;;;;;;;;;;5026828;28;20064;-74
2023/01/26 04:53:21;;;;;;;53.55;22.55;;;;;;;;;;5016621;28;20467;-74
2023/01/26 04:55:47;;;;;;;56.47;24.00;;;;;;;;;;5021040;28;20037;-74
2023/01/26 04:58:13;;;;;;;57.53;23.70;;;;;;;;;;5012753;28;20022;-74
2023/01/26 05:00:39;;;;;;;63.10;24.42;;;;;;;;;;5019463;28;22266;-73
2023/01/26 05:03:05;;;;;;;60.97;23.13;;;;;;;;;;5021734;28;20026;-74
2023/01/26 05:05:34;;;;;;;62.70;24.77;;;;;;;;;;5026369;28;20091;-74
2023/01/26 05:08:00;;;;;;;60.20;23.02;;;;;;;;;;5024550;28;20042;-74
2023/01/26 05:10:26;;;;;;;61.97;24.15;;;;;;;;;;5022181;28;20037;-75
2023/01/26 05:12:52;;;;;;;60.13;23.80;;;;;;;;;;5013649;28;20033;-74
2023/01/26 05:15:18;;;;;;;59.85;24.38;;;;;;;;;;5018532;28;20056;-74
2023/01/26 05:17:44;;;;;;;60.40;25.45;;;;;;;;;;5017601;28;20603;-74
2023/01/26 05:20:10;;;;;;;58.63;24.73;;;;;;;;;;5027877;28;20123;-74
2023/01/26 05:22:36;;;;;;;64.47;25.95;;;;;;;;;;5019763;28;20030;-73
2023/01/26 05:25:02;;;;;;;66.22;25.65;;;;;;;;;;5016982;28;20040;-74
2023/01/26 05:27:29;;;;;;;68.65;27.20;;;;;;;;;;5019146;28;20060;-74
2023/01/26 05:29:59;;;;;;;67.07;26.10;;;;;;;;;;5023539;28;20087;-74
2023/01/26 05:32:25;;;;;;;72.13;28.27;;;;;;;;;;5012139;28;20041;-74
2023/01/26 05:34:51;;;;;;;73.57;27.65;;;;;;;;;;5016132;28;20033;-74
2023/01/26 05:37:17;;;;;;;70.47;27.15;;;;;;;;;;5016446;28;20397;-74
2023/01/26 05:39:43;;;;;;;70.65;28.70;;;;;;;;;;5017650;28;20033;-74
2023/01/26 05:42:13;;;;;;;69.50;26.88;;;;;;;;;;5021904;28;20087;-74
2023/01/26 05:44:39;;;;;;;74.03;27.02;;;;;;;;;;5012651;28;20032;-74
2023/01/26 05:47:05;;;;;;;69.35;28.70;;;;;;;;;;5014654;28;20034;-74
2023/01/26 05:49:31;;;;;;;75.15;28.00;;;;;;;;;;5022463;28;20053;-74
2023/01/26 05:51:57;;;;;;;66.60;26.42;;;;;;;;;;5020297;28;20032;-74
2023/01/26 05:54:23;;;;;;;73.70;28.17;;;;;;;;;;5023723;28;20029;-74
2023/01/26 05:56:52;;;;;;;70.30;28.55;;;;;;;;;;5024461;28;20028;-74
2023/01/26 05:59:18;;;;;;;67.85;27.23;;;;;;;;;;5024469;28;20061;-74
2023/01/26 06:01:44;;;;;;;72.90;28.52;;;;;;;;;;5004253;28;20087;-74
2023/01/26 06:04:10;;;;;;;72.28;28.08;;;;;;;;;;5016206;28;20026;-74
2023/01/26 06:06:36;;;;;;;71.20;28.90;;;;;;;;;;5017743;28;20508;-75
2023/01/26 06:09:02;;;;;;;67.57;26.75;;;;;;;;;;5019650;28;20034;-74
2023/01/26 06:11:28;;;;;;;69.88;26.92;;;;;;;;;;5007331;28;20044;-74
2023/01/26 06:13:54;;;;;;;74.60;28.25;;;;;;;;;;5011731;28;20030;-74
2023/01/26 06:16:20;;;;;;;68.50;27.40;;;;;;;;;;5023945;28;20034;-74
2023/01/26 06:18:48;;;;;;;66.70;27.65;;;;;;;;;;5018329;28;20483;-74
2023/01/26 06:21:14;;;;;;;74.03;28.67;;;;;;;;;;5011411;28;20552;-74
2023/01/26 06:23:40;;;;;;;69.70;25.95;;;;;;;;;;5012729;28;20034;-74
2023/01/26 06:26:06;;;;;;;65.82;27.50;;;;;;;;;;5026963;28;20045;-75
2023/01/26 06:28:34;;;;;;;69.90;27.17;;;;;;;;;;5022200;28;20112;-74
2023/01/26 06:31:04;;;;;;;64.97;26.95;;;;;;;;;;5022642;28;20047;-74
2023/01/26 06:33:34;;;;;;;69.20;28.23;;;;;;;;;;5020730;28;20033;-74
2023/01/26 06:36:02;;;;;;;69.07;28.33;;;;;;;;;;5018866;28;20044;-74
2023/01/26 06:38:28;;;;;;;68.03;28.35;;;;;;;;;;5026009;28;20484;-73
2023/01/26 06:40:54;;;;;;;68.40;28.75;;;;;;;;;;5014040;28;20060;-74
2023/01/26 06:43:20;;;;;;;67.72;28.60;;;;;;;;;;5023588;28;20525;-73
2023/01/26 06:45:48;;;;;;;68.47;28.73;;;;;;;;;;5016704;28;20129;-74
2023/01/26 06:48:14;;;;;;;72.88;29.20;;;;;;;;;;5012287;28;20052;-74
2023/01/26 06:50:40;;;;;;;72.25;29.30;;;;;;;;;;5011220;28;20034;-73
2023/01/26 06:53:24;;;;;;;74.88;30.13;;;;;;;;;;5022468;28;20045;-73
2023/01/26 06:55:51;;;;;;;73.22;29.00;;;;;;;;;;5022675;28;20060;-73
2023/01/26 06:58:17;;;;;;;73.68;29.75;;;;;;;;;;5020900;28;20026;-73
2023/01/26 07:00:43;;;;;;;72.70;29.80;;;;;;;;;;5014679;28;20033;-73
2023/01/26 07:03:10;;;;;;;78.10;30.00;;;;;;;;;;5010735;28;20033;-73
2023/01/26 07:05:36;;;;;;;79.45;29.90;;;;;;;;;;5009813;28;20056;-73
2023/01/26 07:08:05;;;;;;;82.07;32.95;;;;;;;;;;5015240;28;20522;-73
2023/01/26 07:10:31;;;;;;;87.90;33.88;;;;;;;;;;5009323;28;20107;-73
2023/01/26 07:12:57;;;;;;;81.53;32.35;;;;;;;;;;5014149;28;20112;-73
2023/01/26 07:15:23;;;;;;;81.38;30.15;;;;;;;;;;5014783;28;20026;-74
2023/01/26 07:17:49;;;;;;;82.47;33.10;;;;;;;;;;5014224;28;20025;-74
2023/01/26 07:20:15;;;;;;;86.10;32.80;;;;;;;;;;5017264;28;20072;-74
2023/01/26 07:22:41;;;;;;;86.22;34.13;;;;;;;;;;5021796;28;20036;-74
2023/01/26 07:25:07;;;;;;;84.22;32.45;;;;;;;;;;5019827;28;20041;-74
2023/01/26 07:27:33;;;;;;;79.10;31.58;;;;;;;;;;5016779;28;20033;-74
2023/01/26 07:29:59;;;;;;;89.03;33.85;;;;;;;;;;5020045;28;20048;-74
2023/01/26 07:32:25;;;;;;;86.32;32.45;;;;;;;;;;5023585;28;20406;-74
2023/01/26 07:34:51;;;;;;;83.80;33.00;;;;;;;;;;5014637;28;20036;-74
2023/01/26 07:37:17;;;;;;;87.53;34.25;;;;;;;;;;5014782;28;20041;-74
2023/01/26 07:39:43;;;;;;;88.68;31.67;;;;;;;;;;5011376;28;20108;-74
2023/01/26 07:42:10;;;;;;;86.10;33.22;;;;;;;;;;5015930;28;20041;-74
2023/01/26 07:44:36;;;;;;;89.95;32.67;;;;;;;;;;5017925;28;20105;-74
2023/01/26 07:47:02;;;;;;;87.55;32.20;;;;;;;;;;5011438;28;20084;-75
2023/01/26 07:49:28;;;;;;;87.20;30.27;;;;;;;;;;5012027;28;20088;-73
2023/01/26 07:51:54;;;;;;;86.03;31.75;;;;;;;;;;5020301;28;20108;-74
2023/01/26 07:54:20;;;;;;;83.95;31.05;;;;;;;;;;5017107;28;20036;-73
2023/01/26 07:56:46;;;;;;;85.65;31.52;;;;;;;;;;5011528;28;20048;-73
2023/01/26 07:59:12;;;;;;;81.10;30.25;;;;;;;;;;5018988;28;20067;-74
2023/01/26 08:01:38;;;;;;;88.95;31.30;;;;;;;;;;5019854;28;20107;-74
2023/01/26 08:04:04;;;;;;;80.35;29.55;;;;;;;;;;5011513;28;20129;-74
2023/01/26 08:06:30;;;;;;;81.38;30.27;;;;;;;;;;5019203;28;20555;-74
2023/01/26 08:08:56;;;;;;;88.38;30.15;;;;;;;;;;5020756;28;20099;-74
2023/01/26 08:11:24;;;;;;;81.93;30.00;;;;;;;;;;5021021;28;20124;-74
2023/01/26 08:13:50;;;;;;;81.55;29.75;;;;;;;;;;5019468;28;20022;-75
2023/01/26 08:16:16;;;;;;;76.93;28.35;;;;;;;;;;5016408;28;20553;-75
2023/01/26 08:18:44;;;;;;;92.38;29.02;;;;;;;;;;5023578;28;20386;-74
2023/01/26 08:21:10;;;;;;;77.45;28.20;;;;;;;;;;5018931;28;20068;-74
2023/01/26 08:23:36;;;;;;;76.47;26.52;;;;;;;;;;5011766;28;20117;-74
2023/01/26 08:26:07;;;;;;;67.57;26.08;;;;;;;;;;5026032;28;20116;-74
2023/01/26 08:28:33;;;;;;;68.68;25.17;;;;;;;;;;5015013;28;20072;-75
2023/01/26 08:31:03;;;;;;;69.22;25.55;;;;;;;;;;5017511;28;20033;-75
2023/01/26 08:33:30;;;;;;;67.85;26.05;;;;;;;;;;5021856;28;20030;-75
2023/01/26 08:36:18;;;;;;;65.35;25.27;;;;;;;;;;5025188;28;20068;-75
2023/01/26 08:38:44;;;;;;;69.70;25.95;;;;;;;;;;5013301;28;20514;-76
2023/01/26 08:41:10;;;;;;;69.72;26.05;;;;;;;;;;5021165;28;20037;-75
2023/01/26 08:43:36;;;;;;;66.65;24.23;;;;;;;;;;5019415;28;20040;-76
2023/01/26 08:46:03;;;;;;;67.35;25.73;;;;;;;;;;5014373;28;20030;-75
2023/01/26 08:48:30;;;;;;;63.58;24.45;;;;;;;;;;5026679;28;20130;-76
2023/01/26 08:50:57;;;;;;;66.25;24.70;;;;;;;;;;5022572;28;20041;-76
2023/01/26 08:53:23;;;;;;;58.42;22.08;;;;;;;;;;5024202;28;20021;-76
2023/01/26 08:55:49;;;;;;;60.28;22.83;;;;;;;;;;5012733;28;20034;-76
2023/01/26 08:58:16;;;;;;;62.00;23.20;;;;;;;;;;5017645;28;20029;-76
2023/01/26 09:00:42;;;;;;;58.58;23.48;;;;;;;;;;5013892;28;20036;-72
2023/01/26 09:03:08;;;;;;;57.45;22.88;;;;;;;;;;5012322;28;20029;-73
2023/01/26 09:05:35;;;;;;;58.55;21.48;;;;;;;;;;5017332;28;20025;-73
2023/01/26 09:08:01;;;;;;;69.63;25.08;;;;;;;;;;5025993;28;20813;-73
2023/01/26 09:10:27;;;;;;;60.97;24.00;;;;;;;;;;5019675;28;20037;-72
2023/01/26 09:12:53;;;;;;;62.15;24.55;;;;;;;;;;5012967;28;20038;-73
2023/01/26 09:15:19;;;;;;;61.08;23.38;;;;;;;;;;5027191;28;20032;-73
2023/01/26 09:17:49;;;;;;;70.32;24.90;;;;;;;;;;5019699;28;20393;-73
2023/01/26 09:20:15;;;;;;;64.97;24.00;;;;;;;;;;5019084;28;20038;-73
2023/01/26 09:22:41;;;;;;;59.35;24.20;;;;;;;;;;5011128;28;20037;-73
2023/01/26 09:25:08;;;;;;;62.80;24.02;;;;;;;;;;5019909;28;20030;-73
2023/01/26 09:27:34;;;;;;;62.03;23.10;;;;;;;;;;5009302;28;20065;-71
2023/01/26 09:30:00;;;;;;;61.67;22.92;;;;;;;;;;5012442;28;20033;-71
2023/01/26 09:32:26;;;;;;;60.28;23.10;;;;;;;;;;5016455;28;20038;-71
2023/01/26 09:34:52;;;;;;;67.70;23.45;;;;;;;;;;5014854;28;20501;-71
2023/01/26 09:37:19;;;;;;;62.80;22.98;;;;;;;;;;5017398;28;20021;-71
2023/01/26 09:39:45;;;;;;;56.13;22.38;;;;;;;;;;5018299;28;20022;-71
2023/01/26 09:42:26;;;;;;;59.15;22.60;;;;;;;;;;5019011;28;20045;-72
2023/01/26 09:44:59;;;;;;;60.08;22.63;;;;;;;;;;5010894;28;20026;-72
2023/01/26 09:47:29;;;;;;;61.08;23.23;;;;;;;;;;5023557;28;20025;-72
2023/01/26 09:50:10;;;;;;;59.40;23.73;;;;;;;;;;5013674;28;20053;-72
2023/01/26 09:52:56;;;;;;;59.42;23.15;;;;;;;;;;5011950;28;20159;-71
2023/01/26 09:55:23;;;;;;;62.97;22.65;;;;;;;;;;5014428;28;20087;-73
2023/01/26 09:57:49;;;;;;;61.17;23.52;;;;;;;;;;5015217;28;20039;-73
2023/01/26 10:00:32;;;;;;;57.25;21.67;;;;;;;;;;5021212;28;20034;-73
2023/01/26 10:03:10;;;;;;;58.77;22.50;;;;;;;;;;5012500;28;20041;-72
2023/01/26 10:05:55;;;;;;;60.03;23.38;;;;;;;;;;5018127;28;20026;-73
2023/01/26 10:08:25;;;;;;;59.55;22.77;;;;;;;;;;5020380;28;20041;-73
2023/01/26 10:10:57;;;;;;;62.42;23.95;;;;;;;;;;5020781;28;20064;-73
2023/01/26 10:13:23;;;;;;;61.75;23.65;;;;;;;;;;5007404;28;20033;-72
2023/01/26 10:15:59;;;;;;;63.72;23.83;;;;;;;;;;5017748;28;20022;-73
2023/01/26 10:18:27;;;;;;;62.80;23.90;;;;;;;;;;5018815;28;20145;-73
2023/01/26 10:20:55;;;;;;;61.88;23.90;;;;;;;;;;5011327;28;20117;-73
2023/01/26 10:23:23;;;;;;;61.20;23.35;;;;;;;;;;5013856;28;20026;-73
2023/01/26 10:25:50;;;;;;;61.50;24.20;;;;;;;;;;5011968;28;20474;-71
2023/01/26 10:28:36;;;;;;;65.05;24.90;;;;;;;;;;5016842;28;20064;-73
2023/01/26 10:31:04;;;;;;;63.28;24.25;;;;;;;;;;5015527;28;20033;-73
2023/01/26 10:33:32;;;;;;;59.58;22.35;;;;;;;;;;5018661;28;20033;-73
2023/01/26 10:35:59;;;;;;;63.78;23.52;;;;;;;;;;5010422;28;20644;-72
2023/01/26 10:38:34;;;;;;;61.58;22.55;;;;;;;;;;5017627;28;20029;-73
2023/01/26 10:41:01;;;;;;;62.95;23.95;;;;;;;;;;5023332;28;20045;-73
2023/01/26 10:43:27;;;;;;;62.85;22.85;;;;;;;;;;5015978;28;20204;-71
2023/01/26 10:45:53;;;;;;;61.75;22.77;;;;;;;;;;5022264;28;20033;-73
2023/01/26 10:48:23;;;;;;;62.15;24.08;;;;;;;;;;5028914;28;20064;-73
2023/01/26 10:50:49;;;;;;;60.80;23.50;;;;;;;;;;5027061;28;20033;-74
2023/01/26 10:53:17;;;;;;;59.45;23.55;;;;;;;;;;5019527;28;20049;-72
2023/01/26 10:55:57;;;;;;;58.70;22.48;;;;;;;;;;5017560;28;20568;-72
2023/01/26 10:58:42;;;;;;;59.97;21.80;;;;;;;;;;5013276;28;20083;-73
2023/01/26 11:01:11;;;;;;;59.95;22.27;;;;;;;;;;5016967;28;20049;-73
2023/01/26 11:03:38;;;;;;;59.78;22.25;;;;;;;;;;5013981;28;20057;-73
2023/01/26 11:06:07;;;;;;;59.33;22.23;;;;;;;;;;5023837;28;20584;-74
2023/01/26 11:08:35;;;;;;;61.33;22.73;;;;;;;;;;5023179;28;20482;-72
2023/01/26 11:11:02;;;;;;;60.83;22.45;;;;;;;;;;5013043;28;20187;-72
2023/01/26 11:13:28;;;;;;;58.53;22.50;;;;;;;;;;5017996;28;20034;-72
2023/01/26 11:16:03;;;;;;;59.25;23.60;;;;;;;;;;5026501;28;20037;-72
2023/01/26 11:18:41;;;;;;;63.05;24.58;;;;;;;;;;5020478;28;20032;-72
2023/01/26 11:21:17;;;;;;;51.95;20.92;;;;;;;;;;5019563;28;20045;-72
2023/01/26 11:23:51;;;;;;;66.47;27.65;;;;;;;;;;5016709;28;20584;-72
2023/01/26 11:26:26;;;;;;;61.72;25.10;;;;;;;;;;5023002;28;20889;-71
2023/01/26 11:29:10;;;;;;;55.17;21.60;;;;;;;;;;5020772;28;20029;-71
2023/01/26 11:31:45;;;;;;;58.63;22.77;;;;;;;;;;5020439;28;20236;-71
2023/01/26 11:34:34;;;;;;;62.75;21.90;;;;;;;;;;5025638;28;20057;-72
2023/01/26 11:37:18;;;;;;;58.80;22.27;;;;;;;;;;5010609;28;20122;-71
2023/01/26 11:39:55;;;;;;;58.53;22.77;;;;;;;;;;5021772;28;20430;-72
2023/01/26 11:42:21;;;;;;;54.13;21.13;;;;;;;;;;5025405;28;20033;-71
2023/01/26 11:45:07;;;;;;;55.90;20.52;;;;;;;;;;5021188;28;20045;-71
2023/01/26 11:47:39;;;;;;;59.20;21.63;;;;;;;;;;5011691;28;20033;-71
2023/01/26 11:50:19;;;;;;;51.50;18.60;;;;;;;;;;5022520;28;20081;-71
2023/01/26 11:53:06;;;;;;;67.47;24.30;;;;;;;;;;5022300;28;20048;-71
2023/01/26 11:55:44;;;;;;;65.15;24.70;;;;;;;;;;5016581;28;20040;-71
2023/01/26 11:58:19;;;;;;;66.18;23.85;;;;;;;;;;5017041;28;20129;-71
2023/01/26 12:00:54;;;;;;;58.47;22.92;;;;;;;;;;5023718;28;20096;-71
2023/01/26 12:03:32;;;;;;;62.40;22.40;;;;;;;;;;5021405;28;20032;-71
2023/01/26 12:06:02;;;;;;;61.58;22.35;;;;;;;;;;5022218;28;20141;-72
2023/01/26 12:08:40;;;;;;;66.28;23.13;;;;;;;;;;5018226;28;20446;-73
2023/01/26 12:11:22;;;;;;;65.97;24.17;;;;;;;;;;5019472;28;20385;-72
2023/01/26 12:14:12;;;;;;;55.02;21.60;;;;;;;;;;4536019;28;10002639;-73
2023/01/26 12:16:53;;;;;;;61.55;23.00;;;;;;;;;;5021540;28;20706;-72
2023/01/26 12:19:32;;;;;;;60.70;23.42;;;;;;;;;;5014944;28;20026;-72
2023/01/26 12:22:02;;;;;;;67.03;25.20;;;;;;;;;;5017721;28;20029;-72
2023/01/26 12:24:47;;;;;;;63.83;24.73;;;;;;;;;;5021577;28;20025;-71
2023/01/26 12:27:19;;;;;;;75.28;28.15;;;;;;;;;;5019702;28;20039;-72
2023/01/26 12:29:50;;;;;;;103.70;41.17;;;;;;;;;;5016825;28;20033;-71
2023/01/26 12:32:16;;;;;;;71.95;28.73;;;;;;;;;;5020185;28;20377;-72
2023/01/26 12:34:42;;;;;;;70.88;26.20;;;;;;;;;;5021731;28;20041;-72
2023/01/26 12:37:26;;;;;;;66.20;24.88;;;;;;;;;;5015365;28;20501;-72
2023/01/26 12:40:00;;;;;;;67.65;25.63;;;;;;;;;;5016287;28;20386;-72
2023/01/26 12:42:29;;;;;;;63.75;24.92;;;;;;;;;;5019827;28;20037;-74
2023/01/26 12:44:55;;;;;;;72.70;27.52;;;;;;;;;;5017353;28;20025;-71
2023/01/26 12:47:31;;;;;;;69.50;27.17;;;;;;;;;;5022394;28;20040;-70
2023/01/26 12:50:15;;;;;;;68.45;26.35;;;;;;;;;;5023644;28;20107;-70
2023/01/26 12:52:57;;;;;;;67.88;26.15;;;;;;;;;;5011839;28;20121;-70
2023/01/26 12:55:37;;;;;;;67.20;25.80;;;;;;;;;;5017221;28;20030;-71
2023/01/26 12:58:08;;;;;;;72.18;27.85;;;;;;;;;;5014310;28;20402;-71
2023/01/26 13:00:36;;;;;;;62.65;25.73;;;;;;;;;;5014728;28;20122;-70
2023/01/26 13:03:13;;;;;;;62.47;25.88;;;;;;;;;;5016143;28;20045;-71
2023/01/26 13:05:54;;;;;;;66.72;26.20;;;;;;;;;;5014421;28;20038;-71
2023/01/26 13:08:32;;;;;;;67.55;27.45;;;;;;;;;;5007469;28;20029;-73
2023/01/26 13:11:08;;;;;;;69.72;27.50;;;;;;;;;;5008142;28;20534;-72
2023/01/26 13:13:53;;;;;;;63.72;24.05;;;;;;;;;;5008809;28;20044;-72
2023/01/26 13:16:22;;;;;;;62.42;24.48;;;;;;;;;;5016423;28;20108;-72
2023/01/26 13:18:52;;;;;;;59.58;23.10;;;;;;;;;;5015600;28;20033;-71
2023/01/26 13:21:28;;;;;;;66.88;26.23;;;;;;;;;;5017207;28;20163;-70
2023/01/26 13:23:54;;;;;;;61.40;23.95;;;;;;;;;;5013245;28;20056;-71
2023/01/26 13:26:32;;;;;;;61.85;24.05;;;;;;;;;;5011440;28;20638;-71
2023/01/26 13:29:17;;;;;;;64.00;24.30;;;;;;;;;;5015308;28;20276;-71
2023/01/26 13:31:43;;;;;;;60.25;24.80;;;;;;;;;;5009945;28;20044;-71
2023/01/26 13:34:09;;;;;;;62.55;24.55;;;;;;;;;;5009423;28;20200;-71
2023/01/26 13:36:36;;;;;;;65.55;24.35;;;;;;;;;;5011117;28;20044;-71
2023/01/26 13:39:12;;;;;;;61.03;25.00;;;;;;;;;;5015989;28;20044;-72
2023/01/26 13:41:44;;;;;;;60.90;24.13;;;;;;;;;;5011421;28;20037;-73
2023/01/26 13:44:14;;;;;;;46.55;18.83;;;;;;;;;;5003480;28;20032;-74
2023/01/26 13:46:44;;;;;;;61.80;23.73;;;;;;;;;;5019120;28;20484;-74
2023/01/26 13:49:46;;;;;;;57.55;24.00;;;;;;;;;;5020168;28;20052;-72
2023/01/26 13:52:15;;;;;;;61.13;24.02;;;;;;;;;;4971711;28;20485;-72
2023/01/26 13:54:42;;;;;;;54.22;23.48;;;;;;;;;;5004720;28;20037;-71
2023/01/26 13:57:12;;;;;;;55.88;23.60;;;;;;;;;;5017593;28;20485;-73
2023/01/26 13:59:59;;;;;;;54.10;23.40;;;;;;;;;;5021311;28;20469;-73
2023/01/26 14:02:25;;;;;;;56.22;22.90;;;;;;;;;;5006312;28;20065;-73
2023/01/26 14:04:54;;;;;;;52.78;22.92;;;;;;;;;;5023348;28;20071;-72
2023/01/26 14:07:20;;;;;;;56.47;23.88;;;;;;;;;;5020035;28;20124;-73
2023/01/26 14:09:47;;;;;;;55.42;23.80;;;;;;;;;;5018730;28;20068;-72
2023/01/26 14:12:17;;;;;;;57.00;22.90;;;;;;;;;;5007996;28;20030;-74
2023/01/26 14:14:47;;;;;;;55.28;23.77;;;;;;;;;;5009705;28;20478;-74
2023/01/26 14:17:26;;;;;;;53.50;22.95;;;;;;;;;;5011110;28;20406;-72
2023/01/26 14:19:52;;;;;;;56.03;23.27;;;;;;;;;;5020145;28;20036;-72
2023/01/26 14:22:18;;;;;;;55.67;23.52;;;;;;;;;;5008692;28;20473;-73
2023/01/26 14:24:47;;;;;;;54.70;24.20;;;;;;;;;;5017456;28;20037;-72
2023/01/26 14:27:32;;;;;;;53.72;22.77;;;;;;;;;;5026430;28;20689;-72
2023/01/26 14:29:58;;;;;;;50.63;22.75;;;;;;;;;;5022206;28;20120;-72
2023/01/26 14:35:33;;;;;;;54.30;22.75;;;;;;;;;;4996712;28;20095;-74
2023/01/26 14:38:11;;;;;;;51.08;22.25;;;;;;;;;;5016122;28;20585;-74
2023/01/26 14:40:44;;;;;;;55.30;22.60;;;;;;;;;;5013814;28;20055;-74
2023/01/26 14:43:11;;;;;;;56.33;23.80;;;;;;;;;;5012782;28;20040;-74
2023/01/26 14:45:38;;;;;;;57.05;23.17;;;;;;;;;;5012648;28;20084;-74
2023/01/26 14:48:07;;;;;;;48.30;21.40;;;;;;;;;;5018182;28;20120;-74
2023/01/26 14:50:33;;;;;;;48.30;21.58;;;;;;;;;;5026863;28;20041;-74
2023/01/26 14:53:00;;;;;;;49.55;21.75;;;;;;;;;;5022038;28;20058;-74
2023/01/26 14:55:27;;;;;;;46.35;19.52;;;;;;;;;;5031761;28;20022;-74
2023/01/26 14:57:54;;;;;;;43.55;18.90;;;;;;;;;;5017808;28;20108;-74
2023/01/26 15:00:23;;;;;;;40.33;19.20;;;;;;;;;;5010024;28;20034;-74
2023/01/26 15:02:49;;;;;;;38.67;17.73;;;;;;;;;;5021352;28;20066;-74
2023/01/26 15:05:17;;;;;;;35.72;17.25;;;;;;;;;;5031743;28;20488;-74
2023/01/26 15:08:01;;;;;;;35.60;17.25;;;;;;;;;;5027114;28;20033;-74
2023/01/26 15:10:27;;;;;;;35.40;17.25;;;;;;;;;;5011058;28;20105;-74
2023/01/26 15:13:01;;;;;;;40.05;18.08;;;;;;;;;;5026606;28;20030;-73
2023/01/26 15:15:31;;;;;;;37.53;16.15;;;;;;;;;;5023099;28;20044;-73
2023/01/26 15:18:04;;;;;;;36.80;16.63;;;;;;;;;;5014808;28;20026;-73
2023/01/26 15:20:31;;;;;;;47.03;19.85;;;;;;;;;;5009824;28;20034;-73
2023/01/26 15:22:57;;;;;;;41.83;18.52;;;;;;;;;;5024866;28;20037;-73
2023/01/26 15:25:25;;;;;;;41.15;18.20;;;;;;;;;;5021553;28;20052;-73